New Cumberland, Pennsylvania
Current Conditions -  °F | °C
As of 4:56 PM on Wednesday 22 Oct 2014 (Local Time) from KCXY Reporting Station
Overcast Overcast  
Wind Chill: 56°   Ceiling: 2700
Heat Index: 56°   Visibility: 10mi
Dew Point: 45°   Wind: 14mph
Humidity: 67%   Direction: 360°N
Pressure: 29.97"   Gusts: 20mph
Location:  40.23°N, 76.87°W
Report Text: KCXY 222056Z 36012G17KT 10SM OVC027 13/07 A2997 RMK AO2 SLP148 T01330072 55003
Loading
Personal Weather Stations






























Interactive Weather Map
Tropical Storm Tracking
New forecast layout! Learn more

10-Day Weather Forecast

Advertisements
Track Severe Weather on mobile